createdAt,value
2023-05-14T00:01:14.036Z,91.78
2023-05-14T00:03:16.921Z,91.51
2023-05-14T00:05:19.748Z,92.15
2023-05-14T00:07:22.355Z,92.45
2023-05-14T00:09:25.063Z,92.62
2023-05-14T00:11:27.870Z,93.10
2023-05-14T00:13:30.447Z,94.00
2023-05-14T00:15:34.391Z,94.12
2023-05-14T00:17:38.150Z,94.63
2023-05-14T00:19:42.157Z,94.62
2023-05-14T00:21:44.896Z,95.29
2023-05-14T00:23:47.776Z,96.64
2023-05-14T00:25:50.674Z,96.99
2023-05-14T00:27:53.382Z,97.85
2023-05-14T00:29:56.086Z,98.50
2023-05-14T00:31:58.687Z,99.01
2023-05-14T00:34:01.636Z,100.00
2023-05-14T00:36:04.886Z,100.00
2023-05-14T00:38:07.641Z,100.00
2023-05-14T00:40:13.129Z,100.00
2023-05-14T00:42:15.844Z,100.00
2023-05-14T00:44:18.490Z,100.00
2023-05-14T00:46:21.531Z,100.00
2023-05-14T00:48:25.003Z,100.00
2023-05-14T00:50:27.850Z,100.00
2023-05-14T00:52:31.180Z,100.00
2023-05-14T00:54:34.647Z,100.00
2023-05-14T00:56:37.357Z,100.00
2023-05-14T00:58:39.981Z,100.00
2023-05-14T01:00:42.895Z,100.00
2023-05-14T01:02:45.792Z,100.00
2023-05-14T01:04:48.819Z,100.00
2023-05-14T01:07:03.157Z,100.00
2023-05-14T01:09:32.252Z,100.00
2023-05-14T01:12:00.006Z,100.00
2023-05-14T01:14:14.521Z,100.00
2023-05-14T01:16:20.254Z,100.00
2023-05-14T01:18:24.764Z,100.00
2023-05-14T01:20:27.678Z,100.00
2023-05-14T01:22:30.416Z,100.00
2023-05-14T01:24:33.336Z,100.00
2023-05-14T01:26:37.306Z,100.00
2023-05-14T01:28:40.257Z,100.00
2023-05-14T01:30:51.816Z,100.00
2023-05-14T01:32:58.402Z,100.00
2023-05-14T01:35:01.941Z,100.00
2023-05-14T01:37:08.579Z,100.00
2023-05-14T01:39:14.102Z,100.00
2023-05-14T01:41:18.560Z,100.00
2023-05-14T01:43:21.566Z,100.00
2023-05-14T01:45:25.031Z,100.00
2023-05-14T01:47:27.701Z,100.00
2023-05-14T01:49:30.694Z,100.00
2023-05-14T01:51:33.542Z,100.00
2023-05-14T01:53:36.152Z,100.00
2023-05-14T01:55:38.888Z,100.00
2023-05-14T01:57:41.675Z,100.00
2023-05-14T01:59:44.275Z,100.00
2023-05-14T02:01:46.992Z,100.00
2023-05-14T02:03:49.832Z,100.00
2023-05-14T02:05:52.513Z,100.00
2023-05-14T02:07:55.176Z,100.00
2023-05-14T02:09:57.884Z,100.00
2023-05-14T02:12:00.534Z,100.00
2023-05-14T02:14:03.382Z,100.00
2023-05-14T02:16:06.654Z,100.00
2023-05-14T02:18:09.552Z,100.00
2023-05-14T02:20:13.018Z,100.00
2023-05-14T02:22:25.687Z,100.00
2023-05-14T02:24:28.295Z,100.00
2023-05-14T02:26:30.935Z,100.00
2023-05-14T02:28:34.139Z,100.00
2023-05-14T02:30:36.957Z,100.00
2023-05-14T02:32:39.707Z,100.00
2023-05-14T02:34:42.678Z,100.00
2023-05-14T02:36:45.469Z,100.00
2023-05-14T02:38:48.109Z,100.00
2023-05-14T02:40:51.071Z,100.00
2023-05-14T02:42:53.716Z,100.00
2023-05-14T02:44:56.337Z,100.00
2023-05-14T02:46:59.116Z,100.00
2023-05-14T02:49:03.061Z,100.00
2023-05-14T02:51:05.687Z,100.00
2023-05-14T02:53:08.981Z,100.00
2023-05-14T02:55:11.968Z,100.00
2023-05-14T02:57:14.612Z,100.00
2023-05-14T02:59:17.328Z,100.00
2023-05-14T03:01:20.621Z,98.93
2023-05-14T03:03:23.878Z,97.98
2023-05-14T03:05:26.989Z,97.94
2023-05-14T03:07:29.617Z,99.12
2023-05-14T03:09:32.234Z,98.51
2023-05-14T03:11:35.132Z,97.41
2023-05-14T03:13:37.913Z,97.02
2023-05-14T03:15:40.608Z,97.02
2023-05-14T03:17:43.352Z,96.62
2023-05-14T03:19:46.046Z,95.96
2023-05-14T03:21:50.184Z,96.39
2023-05-14T03:23:53.848Z,96.32
2023-05-14T03:25:56.962Z,96.47
2023-05-14T03:27:59.650Z,97.19
2023-05-14T03:30:02.338Z,97.54
2023-05-14T03:32:08.736Z,98.19
2023-05-14T03:34:11.547Z,99.35
2023-05-14T03:36:14.125Z,99.41
2023-05-14T03:38:17.010Z,99.44
2023-05-14T03:40:19.676Z,99.98
2023-05-14T03:42:23.311Z,100.00
2023-05-14T03:44:26.127Z,99.80
2023-05-14T03:46:28.698Z,99.87
2023-05-14T03:48:31.396Z,99.42
2023-05-14T03:50:34.385Z,99.65
2023-05-14T03:52:37.127Z,98.78
2023-05-14T03:54:41.413Z,98.83
2023-05-14T03:56:44.084Z,100.00
2023-05-14T03:58:47.003Z,100.00
2023-05-14T04:00:49.640Z,100.00
2023-05-14T04:02:52.624Z,100.00
2023-05-14T04:04:55.390Z,100.00
2023-05-14T04:06:58.118Z,99.51
2023-05-14T04:09:00.962Z,100.00
2023-05-14T04:11:03.615Z,100.00
2023-05-14T04:13:06.468Z,100.00
2023-05-14T04:15:09.764Z,100.00
2023-05-14T04:17:12.534Z,100.00
2023-05-14T04:19:15.247Z,100.00
2023-05-14T04:21:18.352Z,100.00
2023-05-14T04:23:21.835Z,100.00
2023-05-14T04:25:24.486Z,100.00
2023-05-14T04:27:29.128Z,100.00
2023-05-14T04:29:31.866Z,100.00
2023-05-14T04:31:34.674Z,99.93
2023-05-14T04:33:37.605Z,99.63
2023-05-14T04:35:40.270Z,98.96
2023-05-14T04:37:42.867Z,98.60
2023-05-14T04:39:45.765Z,98.57
2023-05-14T04:41:48.478Z,98.78
2023-05-14T04:43:51.162Z,98.39
2023-05-14T04:45:53.973Z,99.14
2023-05-14T04:47:56.688Z,99.68
2023-05-14T04:49:59.503Z,99.58
2023-05-14T04:52:02.893Z,99.53
2023-05-14T04:54:06.035Z,99.00
2023-05-14T04:56:08.649Z,99.05
2023-05-14T04:58:11.452Z,98.56
2023-05-14T05:00:14.347Z,98.71
2023-05-14T05:02:17.103Z,98.42
2023-05-14T05:04:19.961Z,98.35
2023-05-14T05:06:22.664Z,98.20
2023-05-14T05:08:25.328Z,97.21
2023-05-14T05:10:28.025Z,96.38
2023-05-14T05:12:31.008Z,95.47
2023-05-14T05:14:33.718Z,95.20
2023-05-14T05:16:36.733Z,94.63
2023-05-14T05:18:40.445Z,93.32
2023-05-14T05:20:43.195Z,92.73
2023-05-14T05:22:46.001Z,92.38
2023-05-14T05:24:49.962Z,92.78
2023-05-14T05:26:54.149Z,92.12
2023-05-14T05:28:56.876Z,91.26
2023-05-14T05:30:59.599Z,89.55
2023-05-14T05:33:02.385Z,88.92
2023-05-14T05:35:05.923Z,86.88
2023-05-14T05:37:12.988Z,84.11
2023-05-14T05:39:15.816Z,82.93
2023-05-14T05:41:18.740Z,83.11
2023-05-14T05:43:21.359Z,82.67
2023-05-14T05:45:24.064Z,82.75
2023-05-14T05:47:27.329Z,82.23
2023-05-14T05:49:30.054Z,82.77
2023-05-14T05:51:33.361Z,83.45
2023-05-14T05:53:36.079Z,83.27
2023-05-14T05:55:38.689Z,83.25
2023-05-14T05:57:41.282Z,84.02
2023-05-14T05:59:43.983Z,84.00
2023-05-14T06:01:46.676Z,83.85
2023-05-14T06:03:49.337Z,83.58
2023-05-14T06:05:53.009Z,82.77
2023-05-14T06:07:55.742Z,82.20
2023-05-14T06:09:58.398Z,81.95
2023-05-14T06:12:01.259Z,81.72
2023-05-14T06:14:03.976Z,82.31
2023-05-14T06:16:06.749Z,82.73
2023-05-14T06:18:09.552Z,83.63
2023-05-14T06:20:12.654Z,84.27
2023-05-14T06:22:15.610Z,84.43
2023-05-14T06:24:20.268Z,85.00
2023-05-14T06:26:23.587Z,84.98
2023-05-14T06:28:26.476Z,84.69
2023-05-14T06:30:29.226Z,84.83
2023-05-14T06:32:32.286Z,84.96
2023-05-14T06:34:35.098Z,84.90
2023-05-14T06:36:37.824Z,85.35
2023-05-14T06:38:40.441Z,85.32
2023-05-14T06:40:43.043Z,85.63
2023-05-14T06:42:45.953Z,86.38
2023-05-14T06:44:48.685Z,86.47
2023-05-14T06:46:51.364Z,85.51
2023-05-14T06:48:54.206Z,85.29
2023-05-14T06:50:57.048Z,84.60
2023-05-14T06:53:00.743Z,84.29
2023-05-14T06:55:03.477Z,84.14
2023-05-14T06:57:08.700Z,83.54
2023-05-14T06:59:11.414Z,82.70
2023-05-14T07:01:14.283Z,82.93
2023-05-14T07:03:17.073Z,82.73
2023-05-14T07:05:19.737Z,82.72
2023-05-14T07:07:22.546Z,82.41
2023-05-14T07:09:25.520Z,82.13
2023-05-14T07:11:28.266Z,80.85
2023-05-14T07:13:31.040Z,80.87
2023-05-14T07:15:33.748Z,80.94
2023-05-14T07:17:36.522Z,81.47
2023-05-14T07:19:39.310Z,80.76
2023-05-14T07:21:41.988Z,79.41
2023-05-14T07:23:44.748Z,78.56
2023-05-14T07:25:47.620Z,77.82
2023-05-14T07:27:50.393Z,75.93
2023-05-14T07:29:53.097Z,74.72
2023-05-14T07:31:55.824Z,73.90
2023-05-14T07:33:58.504Z,72.23
2023-05-14T07:36:01.155Z,71.06
2023-05-14T07:38:06.004Z,68.49
2023-05-14T07:40:09.291Z,69.70
2023-05-14T07:42:19.385Z,70.33
2023-05-14T07:44:27.647Z,70.05
2023-05-14T07:46:31.613Z,69.34
2023-05-14T07:48:35.630Z,68.77
2023-05-14T07:50:38.510Z,69.41
2023-05-14T07:52:41.288Z,69.80
2023-05-14T07:54:44.045Z,70.20
2023-05-14T07:56:46.716Z,70.65
2023-05-14T07:58:51.896Z,71.15
2023-05-14T08:00:54.817Z,71.49
2023-05-14T08:02:57.957Z,71.91
2023-05-14T08:05:01.127Z,71.51
2023-05-14T08:07:04.991Z,71.27
2023-05-14T08:09:08.861Z,70.94
2023-05-14T08:11:12.028Z,71.69
2023-05-14T08:13:14.731Z,71.71
2023-05-14T08:15:17.808Z,71.54
2023-05-14T08:17:20.624Z,71.59
2023-05-14T08:19:24.519Z,71.91
2023-05-14T08:21:28.392Z,72.16
2023-05-14T08:23:31.061Z,71.58
2023-05-14T08:25:34.295Z,71.61
2023-05-14T08:27:37.172Z,71.72
2023-05-14T08:29:39.989Z,71.88
2023-05-14T08:31:42.753Z,71.74
2023-05-14T08:33:45.365Z,71.25
2023-05-14T08:35:48.090Z,70.32
2023-05-14T08:37:51.637Z,68.82
2023-05-14T08:39:54.696Z,68.04
2023-05-14T08:41:59.822Z,68.51
2023-05-14T08:44:20.236Z,69.07
2023-05-14T08:46:25.335Z,68.68
2023-05-14T08:48:33.588Z,67.26
2023-05-14T08:50:37.230Z,66.70
2023-05-14T08:52:40.147Z,67.09
2023-05-14T08:54:43.044Z,65.18
2023-05-14T08:56:51.750Z,63.68
2023-05-14T08:58:54.566Z,62.73
2023-05-14T09:00:57.444Z,61.44
2023-05-14T09:03:01.042Z,60.56
2023-05-14T09:05:04.478Z,59.89
2023-05-14T09:07:08.642Z,59.75
2023-05-14T09:09:11.699Z,59.42
2023-05-14T09:11:14.470Z,59.14
2023-05-14T09:13:17.304Z,58.11
2023-05-14T09:15:20.069Z,59.40
2023-05-14T09:17:25.674Z,57.99
2023-05-14T09:19:28.503Z,57.38
2023-05-14T09:21:33.434Z,58.44
2023-05-14T09:23:57.387Z,59.26
2023-05-14T09:26:04.839Z,59.75
2023-05-14T09:28:09.995Z,60.19
2023-05-14T09:30:13.843Z,60.84
2023-05-14T09:32:16.725Z,61.80
2023-05-14T09:34:48.297Z,60.68
2023-05-14T09:37:09.855Z,60.20
2023-05-14T09:39:12.714Z,60.74
2023-05-14T09:41:16.481Z,60.93
2023-05-14T09:43:19.176Z,57.62
2023-05-14T09:45:21.965Z,56.96
2023-05-14T09:47:25.023Z,57.69
2023-05-14T09:49:28.571Z,58.49
2023-05-14T09:51:32.199Z,57.27
2023-05-14T09:53:35.863Z,54.86
2023-05-14T09:55:39.282Z,53.19
2023-05-14T09:57:42.337Z,51.48
2023-05-14T09:59:45.103Z,51.99
2023-05-14T10:01:49.510Z,52.82
2023-05-14T10:03:53.698Z,53.22
2023-05-14T10:06:01.511Z,52.65
2023-05-14T10:08:14.310Z,53.35
2023-05-14T10:10:19.978Z,55.47
2023-05-14T10:12:24.227Z,57.12
2023-05-14T10:14:36.369Z,59.11
2023-05-14T10:16:43.812Z,62.10
2023-05-14T10:18:52.079Z,64.52
2023-05-14T10:21:06.460Z,67.13
2023-05-14T10:23:09.690Z,69.54
2023-05-14T10:25:12.977Z,72.46
2023-05-14T10:27:17.491Z,74.14
2023-05-14T10:29:20.303Z,75.11
2023-05-14T10:31:50.309Z,76.75
2023-05-14T10:33:54.900Z,78.23
2023-05-14T10:36:01.460Z,79.90
2023-05-14T10:38:09.041Z,82.25
2023-05-14T10:40:13.249Z,83.15
2023-05-14T10:42:27.800Z,84.90
2023-05-14T10:44:32.654Z,85.48
2023-05-14T10:46:35.533Z,86.24
2023-05-14T10:48:41.764Z,86.45
2023-05-14T10:50:44.751Z,86.45
2023-05-14T10:52:47.466Z,87.68
2023-05-14T10:54:55.690Z,88.57
2023-05-14T10:56:59.880Z,89.60
2023-05-14T10:59:02.975Z,88.96
2023-05-14T11:01:10.650Z,89.37
2023-05-14T11:03:14.097Z,89.65
2023-05-14T11:05:18.348Z,88.58
2023-05-14T11:07:25.512Z,88.87
2023-05-14T11:09:28.709Z,88.85
2023-05-14T11:11:31.617Z,88.60
2023-05-14T11:13:34.803Z,87.32
2023-05-14T11:15:38.943Z,86.60
2023-05-14T11:17:43.459Z,86.00
2023-05-14T11:19:46.447Z,84.79
2023-05-14T11:21:49.133Z,83.98
2023-05-14T11:23:51.906Z,83.20
2023-05-14T11:25:56.119Z,82.29
2023-05-14T11:28:00.980Z,80.81
2023-05-14T11:30:04.452Z,79.28
2023-05-14T11:32:11.486Z,79.16
2023-05-14T11:34:14.500Z,78.17
2023-05-14T11:36:17.294Z,77.64
2023-05-14T11:38:21.381Z,76.19
2023-05-14T11:40:24.462Z,77.54
2023-05-14T11:42:27.530Z,75.90
2023-05-14T11:44:30.935Z,75.37
2023-05-14T11:46:33.751Z,74.99
2023-05-14T11:48:36.489Z,74.75
2023-05-14T11:50:40.706Z,74.15
2023-05-14T11:52:44.505Z,75.55
2023-05-14T11:54:47.959Z,74.06
2023-05-14T11:56:51.883Z,76.15
2023-05-14T11:58:58.586Z,75.13
2023-05-14T12:01:03.038Z,76.21
2023-05-14T12:03:06.248Z,77.53
2023-05-14T12:05:12.780Z,77.30
2023-05-14T12:07:17.546Z,76.73
2023-05-14T12:09:22.061Z,75.96
2023-05-14T12:11:24.906Z,76.22
2023-05-14T12:13:31.755Z,75.38
2023-05-14T12:15:34.775Z,75.73
2023-05-14T12:17:39.394Z,75.99
2023-05-14T12:19:45.718Z,76.13
2023-05-14T12:21:51.273Z,74.33
2023-05-14T12:24:00.417Z,73.47
2023-05-14T12:26:06.815Z,73.79
2023-05-14T12:28:16.397Z,72.69
2023-05-14T12:30:21.621Z,73.07
2023-05-14T12:32:45.034Z,71.21
2023-05-14T12:34:48.220Z,71.63
2023-05-14T12:37:09.416Z,70.03
2023-05-14T12:39:31.106Z,70.02
2023-05-14T12:41:34.061Z,70.67
2023-05-14T12:43:36.809Z,72.40
2023-05-14T12:45:39.637Z,73.40
2023-05-14T12:47:42.637Z,73.53
2023-05-14T12:49:45.404Z,73.50
2023-05-14T12:51:48.055Z,71.69
2023-05-14T12:53:52.364Z,70.48
2023-05-14T12:55:55.393Z,69.72
2023-05-14T12:57:58.215Z,69.24
2023-05-14T13:00:01.530Z,68.93
2023-05-14T13:02:06.052Z,68.34
2023-05-14T13:04:12.670Z,68.70
2023-05-14T13:06:15.850Z,68.59
2023-05-14T13:08:21.688Z,69.41
2023-05-14T13:10:24.868Z,69.71
2023-05-14T13:12:46.413Z,69.60
2023-05-14T13:14:49.305Z,70.01
2023-05-14T13:16:52.381Z,69.68
2023-05-14T13:18:55.598Z,70.67
2023-05-14T13:20:58.470Z,70.83
2023-05-14T13:23:19.624Z,71.52
2023-05-14T13:25:22.739Z,72.06
2023-05-14T13:27:26.239Z,72.78
2023-05-14T13:29:31.880Z,72.61
2023-05-14T13:31:35.047Z,72.80
2023-05-14T13:33:58.343Z,72.61
2023-05-14T13:36:01.134Z,72.36
2023-05-14T13:38:03.805Z,72.65
2023-05-14T13:40:10.202Z,72.94
2023-05-14T13:42:12.941Z,73.81
2023-05-14T13:44:15.638Z,73.90
2023-05-14T13:46:18.510Z,74.30
2023-05-14T13:48:21.208Z,75.14
2023-05-14T13:50:23.875Z,76.36
2023-05-14T13:52:26.877Z,77.48
2023-05-14T13:54:29.613Z,78.17
2023-05-14T13:56:32.266Z,78.55
2023-05-14T13:58:34.997Z,78.89
2023-05-14T14:00:38.245Z,79.48
2023-05-14T14:02:41.244Z,79.85
2023-05-14T14:04:44.102Z,79.83
2023-05-14T14:06:46.778Z,80.06
2023-05-14T14:08:49.428Z,80.83
2023-05-14T14:10:55.559Z,80.19
2023-05-14T14:12:58.610Z,80.25
2023-05-14T14:15:02.947Z,79.41
2023-05-14T14:17:10.082Z,79.04
2023-05-14T14:19:12.925Z,79.20
2023-05-14T14:21:18.507Z,78.89
2023-05-14T14:23:21.675Z,77.97
2023-05-14T14:25:24.489Z,78.37
2023-05-14T14:27:27.859Z,78.01
2023-05-14T14:29:31.410Z,77.12
2023-05-14T14:31:36.571Z,75.32
2023-05-14T14:33:39.714Z,75.44
2023-05-14T14:35:42.541Z,75.70
2023-05-14T14:37:49.290Z,76.01
2023-05-14T14:39:52.303Z,76.62
2023-05-14T14:41:55.734Z,76.80
2023-05-14T14:43:58.734Z,77.61
2023-05-14T14:46:01.598Z,77.82
2023-05-14T14:48:24.920Z,77.63
2023-05-14T14:50:27.779Z,78.05
2023-05-14T14:52:30.509Z,77.25
2023-05-14T14:54:33.237Z,76.56
2023-05-14T14:56:36.091Z,76.55
2023-05-14T14:58:38.839Z,75.54
2023-05-14T15:00:41.824Z,74.03
2023-05-14T15:02:44.608Z,74.14
2023-05-14T15:04:47.414Z,74.44
2023-05-14T15:06:50.072Z,74.85
2023-05-14T15:08:52.856Z,76.03
2023-05-14T15:10:57.042Z,77.52
2023-05-14T15:13:00.254Z,78.29
2023-05-14T15:15:03.003Z,78.06
2023-05-14T15:17:07.904Z,79.01
2023-05-14T15:19:10.768Z,79.85
2023-05-14T15:21:13.535Z,80.08
2023-05-14T15:23:16.296Z,81.36
2023-05-14T15:25:20.162Z,82.58
2023-05-14T15:27:24.320Z,82.86
2023-05-14T15:29:27.113Z,83.67
2023-05-14T15:31:30.171Z,83.77
2023-05-14T15:33:34.096Z,84.89
2023-05-14T15:35:37.050Z,86.17
2023-05-14T15:37:42.941Z,86.46
2023-05-14T15:39:45.629Z,87.60
2023-05-14T15:41:48.373Z,88.93
2023-05-14T15:43:51.118Z,90.10
2023-05-14T15:45:53.949Z,90.50
2023-05-14T15:47:56.681Z,91.04
2023-05-14T15:50:00.170Z,91.83
2023-05-14T15:52:03.638Z,92.35
2023-05-14T15:54:06.555Z,92.67
2023-05-14T15:56:09.327Z,93.25
2023-05-14T15:58:13.010Z,93.63
2023-05-14T16:00:16.610Z,93.71
2023-05-14T16:02:19.594Z,94.80
2023-05-14T16:04:22.259Z,94.92
2023-05-14T16:06:26.082Z,96.01
2023-05-14T16:08:28.858Z,96.01
2023-05-14T16:10:31.513Z,96.33
2023-05-14T16:12:34.612Z,95.95
2023-05-14T16:14:38.290Z,95.73
2023-05-14T16:16:41.886Z,94.89
2023-05-14T16:18:44.698Z,94.79
2023-05-14T16:20:47.577Z,94.44
2023-05-14T16:22:50.537Z,94.00
2023-05-14T16:24:53.516Z,94.00
2023-05-14T16:26:56.285Z,94.00
2023-05-14T16:28:59.090Z,93.80
2023-05-14T16:31:03.662Z,93.80
2023-05-14T16:33:06.829Z,94.00
2023-05-14T16:35:10.265Z,93.84
2023-05-14T16:37:13.912Z,94.02
2023-05-14T16:39:16.774Z,94.16
2023-05-14T16:41:19.558Z,94.40
2023-05-14T16:43:22.246Z,94.29
2023-05-14T16:45:25.338Z,94.29
2023-05-14T16:47:28.640Z,94.24
2023-05-14T16:49:31.446Z,94.25
2023-05-14T16:51:34.255Z,94.33
2023-05-14T16:53:36.979Z,94.86
2023-05-14T16:55:39.629Z,94.69
2023-05-14T16:57:43.872Z,95.10
2023-05-14T16:59:46.704Z,95.43
2023-05-14T17:01:49.500Z,96.02
2023-05-14T17:03:52.290Z,95.87
2023-05-14T17:05:55.159Z,96.50
2023-05-14T17:07:58.174Z,96.40
2023-05-14T17:10:01.182Z,95.84
2023-05-14T17:12:06.990Z,95.83
2023-05-14T17:14:09.832Z,96.01
2023-05-14T17:16:12.610Z,95.91
2023-05-14T17:18:15.485Z,96.20
2023-05-14T17:20:18.330Z,96.53
2023-05-14T17:22:21.046Z,97.05
2023-05-14T17:24:24.077Z,96.77
2023-05-14T17:26:27.642Z,97.24
2023-05-14T17:28:30.667Z,97.50
2023-05-14T17:30:33.474Z,97.68
2023-05-14T17:32:36.267Z,97.90
2023-05-14T17:34:39.295Z,98.52
2023-05-14T17:36:42.198Z,98.76
2023-05-14T17:38:45.011Z,98.98
2023-05-14T17:40:47.742Z,98.48
2023-05-14T17:42:50.505Z,97.92
2023-05-14T17:44:54.007Z,97.56
2023-05-14T17:46:56.830Z,97.07
2023-05-14T17:48:59.828Z,96.82
2023-05-14T17:51:02.604Z,97.24
2023-05-14T17:53:05.230Z,96.53
2023-05-14T17:55:08.464Z,96.12
2023-05-14T17:57:11.358Z,95.27
2023-05-14T17:59:14.251Z,93.59
2023-05-14T18:01:17.090Z,92.70
2023-05-14T18:03:20.535Z,91.56
2023-05-14T18:05:23.573Z,90.88
2023-05-14T18:07:26.876Z,90.95
2023-05-14T18:09:30.059Z,90.91
2023-05-14T18:11:35.834Z,90.80
2023-05-14T18:13:38.849Z,90.72
2023-05-14T18:15:41.704Z,91.28
2023-05-14T18:17:44.554Z,91.14
2023-05-14T18:19:47.500Z,90.74
2023-05-14T18:21:50.978Z,90.51
2023-05-14T18:23:53.700Z,90.75
2023-05-14T18:25:56.570Z,90.85
2023-05-14T18:27:59.639Z,90.97
2023-05-14T18:30:03.183Z,91.05
2023-05-14T18:32:08.141Z,91.09
2023-05-14T18:34:11.922Z,90.86
2023-05-14T18:36:14.698Z,90.70
2023-05-14T18:38:19.687Z,90.90
2023-05-14T18:40:22.673Z,90.82
2023-05-14T18:42:25.347Z,91.20
2023-05-14T18:44:28.159Z,91.68
2023-05-14T18:46:30.944Z,91.61
2023-05-14T18:48:33.693Z,91.89
2023-05-14T18:50:38.171Z,91.62
2023-05-14T18:52:42.082Z,91.58
2023-05-14T18:54:44.714Z,91.64
2023-05-14T18:56:47.834Z,91.99
2023-05-14T18:58:50.581Z,92.46
2023-05-14T19:00:53.291Z,92.43
2023-05-14T19:02:56.143Z,92.30
2023-05-14T19:04:59.325Z,92.70
2023-05-14T19:07:02.076Z,93.08
2023-05-14T19:09:04.924Z,93.19
2023-05-14T19:11:07.588Z,93.77
2023-05-14T19:13:10.413Z,93.93
2023-05-14T19:15:13.221Z,93.51
2023-05-14T19:17:18.352Z,94.06
2023-05-14T19:19:21.902Z,93.72
2023-05-14T19:21:24.642Z,93.85
2023-05-14T19:23:27.342Z,94.22
2023-05-14T19:25:30.181Z,94.69
2023-05-14T19:27:33.289Z,94.73
2023-05-14T19:29:37.125Z,94.59
2023-05-14T19:31:39.933Z,94.41
2023-05-14T19:33:42.701Z,94.66
2023-05-14T19:35:45.562Z,94.26
2023-05-14T19:37:48.252Z,93.62
2023-05-14T19:39:51.040Z,93.17
2023-05-14T19:41:53.703Z,93.21
2023-05-14T19:43:56.371Z,92.95
2023-05-14T19:46:01.318Z,92.86
2023-05-14T19:48:12.668Z,92.75
2023-05-14T19:50:16.032Z,92.70
2023-05-14T19:52:18.812Z,92.50
2023-05-14T19:54:21.627Z,92.06
2023-05-14T19:56:25.805Z,91.74
2023-05-14T19:58:30.024Z,91.53
2023-05-14T20:00:32.664Z,91.54
2023-05-14T20:02:35.452Z,91.77
2023-05-14T20:04:40.221Z,91.30
2023-05-14T20:06:45.651Z,90.97
2023-05-14T20:08:48.343Z,91.00
2023-05-14T20:10:51.066Z,90.98
2023-05-14T20:12:53.733Z,90.85
2023-05-14T20:14:56.441Z,90.74
2023-05-14T20:17:00.267Z,91.09
2023-05-14T20:19:03.201Z,91.00
2023-05-14T20:21:06.424Z,90.90
2023-05-14T20:23:09.357Z,91.05
2023-05-14T20:25:12.513Z,90.89
2023-05-14T20:27:15.679Z,90.89
2023-05-14T20:29:18.536Z,90.97
2023-05-14T20:31:21.772Z,90.67
2023-05-14T20:33:25.036Z,90.97
2023-05-14T20:35:27.886Z,90.31
2023-05-14T20:37:32.536Z,90.61
2023-05-14T20:39:35.175Z,90.20
2023-05-14T20:41:38.326Z,90.63
2023-05-14T20:43:41.042Z,90.88
2023-05-14T20:45:43.734Z,90.83
2023-05-14T20:47:46.584Z,91.02
2023-05-14T20:49:49.443Z,91.21
2023-05-14T20:51:53.419Z,91.15
2023-05-14T20:53:56.248Z,90.68
2023-05-14T20:55:59.270Z,90.81
2023-05-14T20:58:01.987Z,90.64
2023-05-14T21:00:08.324Z,90.86
2023-05-14T21:02:13.823Z,90.55
2023-05-14T21:04:16.920Z,90.28
2023-05-14T21:06:20.024Z,90.45
2023-05-14T21:08:23.181Z,90.45
2023-05-14T21:10:26.370Z,90.50
2023-05-14T21:12:29.465Z,90.72
2023-05-14T21:14:32.161Z,90.37
2023-05-14T21:16:34.922Z,90.63
2023-05-14T21:18:37.702Z,90.41
2023-05-14T21:20:40.980Z,90.75
2023-05-14T21:22:43.613Z,91.04
2023-05-14T21:24:46.380Z,90.93
2023-05-14T21:26:49.484Z,91.48
2023-05-14T21:28:53.182Z,91.36
2023-05-14T21:30:56.002Z,91.53
2023-05-14T21:32:58.916Z,91.59
2023-05-14T21:35:01.669Z,92.23
2023-05-14T21:37:07.304Z,91.93
2023-05-14T21:39:09.955Z,92.29
2023-05-14T21:41:13.080Z,92.83
2023-05-14T21:43:15.889Z,92.32
2023-05-14T21:45:18.711Z,92.27
2023-05-14T21:47:21.441Z,91.90
2023-05-14T21:49:24.224Z,91.98
2023-05-14T21:51:26.913Z,91.71
2023-05-14T21:53:29.579Z,91.52
2023-05-14T21:55:32.549Z,90.90
2023-05-14T21:57:35.297Z,90.94
2023-05-14T21:59:38.032Z,90.90
2023-05-14T22:02:00.770Z,90.98
2023-05-14T22:04:03.665Z,90.51
2023-05-14T22:06:06.399Z,90.33
2023-05-14T22:08:09.221Z,90.34
2023-05-14T22:10:15.451Z,90.72
2023-05-14T22:12:18.435Z,90.26
2023-05-14T22:14:21.165Z,90.35
2023-05-14T22:16:26.568Z,89.91
2023-05-14T22:18:31.350Z,89.65
2023-05-14T22:20:34.093Z,89.51
2023-05-14T22:22:37.380Z,89.77
2023-05-14T22:24:40.015Z,89.76
2023-05-14T22:26:42.785Z,89.81
2023-05-14T22:28:45.745Z,90.40
2023-05-14T22:30:48.686Z,90.00
2023-05-14T22:32:51.679Z,89.60
2023-05-14T22:34:54.431Z,89.31
2023-05-14T22:36:57.095Z,89.42
2023-05-14T22:38:59.890Z,89.72
2023-05-14T22:41:02.552Z,89.69
2023-05-14T22:43:05.198Z,89.75
2023-05-14T22:45:08.430Z,89.52
2023-05-14T22:47:11.337Z,88.87
2023-05-14T22:49:14.206Z,88.87
2023-05-14T22:51:16.969Z,88.90
2023-05-14T22:53:19.677Z,88.90
2023-05-14T22:55:22.424Z,88.86
2023-05-14T22:57:25.275Z,88.83
2023-05-14T22:59:27.998Z,88.72
2023-05-14T23:01:31.754Z,88.37
2023-05-14T23:03:34.594Z,88.55
2023-05-14T23:05:37.319Z,88.23
2023-05-14T23:07:39.986Z,88.53
2023-05-14T23:09:42.726Z,88.45
2023-05-14T23:11:46.253Z,88.77
2023-05-14T23:13:49.035Z,88.92
2023-05-14T23:15:51.923Z,88.85
2023-05-14T23:17:54.754Z,88.75
2023-05-14T23:19:57.561Z,88.88
2023-05-14T23:22:00.285Z,88.82
2023-05-14T23:24:02.992Z,88.51
2023-05-14T23:26:05.792Z,88.53
2023-05-14T23:28:08.521Z,88.69
2023-05-14T23:30:11.725Z,88.83
2023-05-14T23:32:14.639Z,88.57
2023-05-14T23:34:22.253Z,88.79
2023-05-14T23:36:25.140Z,88.78
2023-05-14T23:38:27.897Z,88.75
2023-05-14T23:40:30.625Z,89.10
2023-05-14T23:42:33.300Z,89.02
2023-05-14T23:44:36.028Z,88.84
2023-05-14T23:46:38.905Z,89.33
2023-05-14T23:48:41.927Z,89.03
2023-05-14T23:50:44.554Z,88.84
2023-05-14T23:52:47.352Z,89.16
2023-05-14T23:54:50.022Z,89.23
2023-05-14T23:56:53.081Z,89.36
2023-05-14T23:58:56.945Z,88.93
